Time;durP1;ratioP1;P1;durP2;ratioP2;P2;SDS_P1;SDS_P2;PMS_P1;PMS_P2;Temp;Humidity;BMP_temperature;BMP_pressure;BME280_temperature;BME280_humidity;BME280_pressure;Samples;Min_cycle;Max_cycle;Signal;HPM_P1;HPM_P2
2023/10/03 00:00:27;;;;;;;23.07;13.47;;;;;;;16.34;86.82;100888.44;5035401;28;20207;-67
2023/10/03 00:03:01;;;;;;;35.53;13.23;;;;;;;16.32;86.81;100878.88;5035699;28;20592;-67
2023/10/03 00:05:30;;;;;;;22.70;12.83;;;;;;;16.37;86.69;100885.41;5035848;28;20191;-67
2023/10/03 00:07:58;;;;;;;20.50;12.87;;;;;;;16.38;86.79;100873.56;5035345;28;20202;-67
2023/10/03 00:10:25;;;;;;;18.47;12.77;;;;;;;16.40;86.61;100878.78;5035244;28;20192;-67
2023/10/03 00:12:52;;;;;;;25.00;12.67;;;;;;;16.38;86.67;100868.16;5035552;28;20187;-67
2023/10/03 00:15:24;;;;;;;15.83;11.60;;;;;;;16.37;86.66;100866.53;5035157;28;20192;-67
2023/10/03 00:17:52;;;;;;;30.03;13.67;;;;;;;16.38;86.62;100860.06;5035496;28;20246;-67
2023/10/03 00:20:19;;;;;;;21.90;13.20;;;;;;;16.34;86.52;100855.22;5035324;28;20191;-67
2023/10/03 00:22:46;;;;;;;23.73;14.13;;;;;;;16.31;86.60;100852.91;5035341;28;20192;-67
2023/10/03 00:25:21;;;;;;;22.20;12.43;;;;;;;16.31;86.64;100850.22;5035297;28;20238;-67
2023/10/03 00:27:49;;;;;;;22.67;13.20;;;;;;;16.28;86.44;100848.75;5035213;28;20204;-67
2023/10/03 00:30:19;;;;;;;23.63;13.10;;;;;;;16.27;86.36;100832.72;5034930;28;20271;-67
2023/10/03 00:32:48;;;;;;;25.03;13.07;;;;;;;16.21;86.69;100828.91;5035176;28;20185;-67
2023/10/03 00:35:16;;;;;;;20.03;11.97;;;;;;;16.21;86.71;100825.41;5034803;28;20184;-67
2023/10/03 00:37:46;;;;;;;18.93;12.03;;;;;;;16.21;86.70;100820.00;5033528;28;20563;-67
2023/10/03 00:40:18;;;;;;;22.10;12.90;;;;;;;16.16;86.65;100817.03;5035309;28;20208;-67
2023/10/03 00:42:51;;;;;;;25.10;13.87;;;;;;;16.14;87.26;100824.44;5033883;28;20214;-67
2023/10/03 00:45:29;;;;;;;23.03;12.90;;;;;;;16.11;87.63;100817.56;5034939;28;20173;-67
2023/10/03 00:48:11;;;;;;;26.23;14.10;;;;;;;16.13;87.98;100810.13;5034825;28;20671;-67
2023/10/03 00:50:38;;;;;;;21.87;12.90;;;;;;;16.22;87.78;100813.56;5035013;28;20216;-67
2023/10/03 00:53:10;;;;;;;27.33;14.00;;;;;;;16.21;87.82;100803.81;5033216;28;20575;-67
2023/10/03 00:55:39;;;;;;;25.97;14.53;;;;;;;16.24;87.66;100806.97;5033200;28;20198;-67
2023/10/03 01:00:49;;;;;;;28.87;13.50;;;;;;;16.29;87.79;100799.16;5034835;28;20211;-67
2023/10/03 01:03:32;;;;;;;26.10;13.83;;;;;;;16.39;87.68;100793.47;5034600;28;20271;-67
2023/10/03 01:06:08;;;;;;;26.80;13.27;;;;;;;16.41;87.81;100786.03;5034486;28;20250;-67
2023/10/03 01:08:43;;;;;;;24.40;13.37;;;;;;;16.45;87.58;100781.94;5034203;28;20183;-67
2023/10/03 01:11:24;;;;;;;26.53;13.00;;;;;;;16.47;87.73;100782.56;5034712;28;20218;-67
2023/10/03 01:13:58;;;;;;;20.97;13.57;;;;;;;16.49;87.65;100774.28;5032725;28;20575;-67
2023/10/03 01:16:33;;;;;;;28.83;13.03;;;;;;;16.48;87.69;100772.59;5033105;28;20242;-67
2023/10/03 01:19:18;;;;;;;30.20;13.67;;;;;;;16.53;87.67;100768.31;5032800;28;20194;-67
2023/10/03 01:21:50;;;;;;;28.13;12.90;;;;;;;16.60;87.32;100753.06;5034055;28;20753;-67
2023/10/03 01:24:20;;;;;;;21.20;12.50;;;;;;;16.63;87.17;100750.00;5034274;28;20572;-67
2023/10/03 01:26:47;;;;;;;18.67;12.50;;;;;;;16.64;87.25;100751.66;5033587;28;20200;-67
2023/10/03 01:29:15;;;;;;;25.10;13.43;;;;;;;16.69;87.37;100748.38;5032542;28;20195;-67
2023/10/03 01:31:42;;;;;;;25.77;12.57;;;;;;;16.69;86.87;100748.38;5032442;28;20231;-67
2023/10/03 01:34:09;;;;;;;22.37;12.23;;;;;;;16.72;87.05;100748.03;5034531;28;20518;-67
2023/10/03 01:36:35;;;;;;;32.30;14.03;;;;;;;16.75;86.95;100744.94;5033046;28;20717;-67
2023/10/03 01:39:03;;;;;;;25.73;12.23;;;;;;;16.80;86.79;100739.81;5033657;28;20187;-67
2023/10/03 01:41:29;;;;;;;21.23;12.30;;;;;;;16.81;86.78;100733.34;5033813;28;20208;-67
2023/10/03 01:43:56;;;;;;;19.90;11.43;;;;;;;16.81;86.97;100723.41;5032527;28;20735;-67
2023/10/03 01:46:22;;;;;;;17.67;12.43;;;;;;;16.82;86.92;100716.13;5033461;28;20257;-67
2023/10/03 01:48:49;;;;;;;18.97;11.87;;;;;;;16.82;86.78;100711.56;5033784;28;20184;-67
2023/10/03 01:51:16;;;;;;;24.30;11.87;;;;;;;16.83;86.84;100710.56;5033393;28;20691;-67
2023/10/03 01:53:42;;;;;;;26.90;13.77;;;;;;;16.78;86.73;100696.78;5032163;28;20279;-67
2023/10/03 01:56:09;;;;;;;27.53;12.60;;;;;;;16.80;86.49;100696.59;5033706;28;20176;-67
2023/10/03 01:58:37;;;;;;;18.53;12.13;;;;;;;16.77;86.38;100676.22;5032395;28;20215;-67
2023/10/03 02:01:04;;;;;;;23.27;12.47;;;;;;;16.77;86.39;100670.81;5032285;28;20212;-67
2023/10/03 02:03:32;;;;;;;20.30;11.97;;;;;;;16.77;86.20;100673.50;5032104;28;20195;-67
2023/10/03 02:06:00;;;;;;;22.27;12.50;;;;;;;16.80;86.52;100658.81;5032231;28;20675;-67
2023/10/03 02:08:27;;;;;;;26.73;12.40;;;;;;;16.83;86.03;100659.25;5033304;28;20184;-67
2023/10/03 02:10:54;;;;;;;21.50;12.33;;;;;;;16.85;86.16;100651.78;5033178;28;20203;-67
2023/10/03 02:13:24;;;;;;;17.30;12.00;;;;;;;16.93;85.99;100639.19;5033216;28;20188;-67
2023/10/03 02:15:52;;;;;;;25.13;12.20;;;;;;;16.95;85.89;100634.41;5031891;28;20195;-67
2023/10/03 02:18:20;;;;;;;33.33;12.30;;;;;;;16.95;86.15;100627.13;5031859;28;20241;-67
2023/10/03 02:20:53;;;;;;;25.80;13.50;;;;;;;16.99;86.14;100623.03;5033340;28;20687;-67
2023/10/03 02:23:23;;;;;;;23.40;12.93;;;;;;;17.00;85.98;100621.16;5033165;28;20600;-67
2023/10/03 02:25:52;;;;;;;21.07;11.90;;;;;;;17.05;85.84;100613.31;5031869;28;20282;-67
2023/10/03 02:28:19;;;;;;;26.90;12.43;;;;;;;17.13;85.43;100607.75;5033011;28;20204;-67
2023/10/03 02:30:47;;;;;;;23.47;12.17;;;;;;;17.22;85.22;100599.31;5031705;28;20215;-67
2023/10/03 02:33:16;;;;;;;25.07;12.17;;;;;;;17.35;84.35;100609.38;5033228;28;20197;-67
2023/10/03 02:35:47;;;;;;;22.43;12.53;;;;;;;17.39;84.22;100601.69;5032995;28;20533;-67
2023/10/03 02:38:24;;;;;;;22.30;12.07;;;;;;;17.44;83.69;100600.03;5033302;28;20574;-67
2023/10/03 02:40:59;;;;;;;28.57;12.57;;;;;;;17.49;82.94;100594.03;5036364;28;20214;-67
2023/10/03 02:43:35;;;;;;;23.40;13.20;;;;;;;17.55;82.50;100588.69;5035684;28;20188;-67
2023/10/03 02:46:07;;;;;;;25.23;12.10;;;;;;;17.56;82.50;100586.81;5036862;28;20187;-67
2023/10/03 02:48:35;;;;;;;19.20;11.27;;;;;;;17.60;82.26;100586.25;5037175;28;20172;-67
2023/10/03 02:51:03;;;;;;;25.13;11.60;;;;;;;17.67;81.75;100583.56;5035435;28;20235;-67
2023/10/03 02:53:29;;;;;;;22.20;12.00;;;;;;;17.65;81.85;100597.28;5035472;28;20192;-67
2023/10/03 02:55:56;;;;;;;19.93;11.30;;;;;;;17.74;80.98;100579.00;5036929;28;20200;-67
2023/10/03 02:58:22;;;;;;;20.97;11.40;;;;;;;17.77;80.85;100567.81;5037178;28;20192;-67
2023/10/03 03:00:53;;;;;;;16.07;11.17;;;;;;;17.79;80.88;100565.72;5036560;28;20215;-67
2023/10/03 03:03:22;;;;;;;19.17;11.00;;;;;;;17.73;81.29;100555.72;5035637;28;20253;-67
2023/10/03 03:05:50;;;;;;;25.30;12.73;;;;;;;17.90;80.89;100557.03;5035227;28;20192;-67
2023/10/03 03:10:58;;;;;;;18.40;10.07;;;;;;;17.96;79.59;100572.44;5035141;28;20269;-67
2023/10/03 03:13:26;;;;;;;17.70;11.63;;;;;;;17.94;79.74;100568.28;5036654;28;20587;-67
2023/10/03 03:16:00;;;;;;;15.13;10.00;;;;;;;17.93;80.43;100572.03;5034962;28;20204;-67
2023/10/03 03:18:31;;;;;;;16.90;10.47;;;;;;;17.94;79.77;100549.34;5036573;28;20183;-67
2023/10/03 03:21:01;;;;;;;21.37;10.70;;;;;;;17.99;79.95;100555.78;5036673;28;20265;-67
2023/10/03 03:23:30;;;;;;;21.03;10.47;;;;;;;18.02;79.72;100557.28;5036715;28;20667;-67
2023/10/03 03:28:49;;;;;;;18.57;10.60;;;;;;;18.06;79.49;100562.09;5036695;28;20234;-67
2023/10/03 03:31:22;;;;;;;18.70;10.43;;;;;;;18.36;77.22;100551.72;5036283;28;20239;-67
2023/10/03 03:33:51;;;;;;;19.27;10.30;;;;;;;18.93;74.04;100547.56;5036292;28;20219;-67
2023/10/03 03:36:21;;;;;;;18.70;9.43;;;;;;;18.96;73.22;100547.19;5036499;28;20176;-67
2023/10/03 03:38:49;;;;;;;19.43;9.40;;;;;;;19.01;72.45;100539.25;5036180;28;20274;-67
2023/10/03 03:41:16;;;;;;;11.93;8.73;;;;;;;19.14;72.39;100531.91;5035761;28;20576;-67
2023/10/03 03:43:43;;;;;;;15.87;9.43;;;;;;;19.58;70.54;100535.78;5035809;28;20184;-67
2023/10/03 03:46:12;;;;;;;14.83;9.47;;;;;;;19.86;69.39;100540.88;5035749;28;20187;-67
2023/10/03 03:48:39;;;;;;;14.00;9.33;;;;;;;20.22;68.50;100546.50;5036407;28;20246;-67
2023/10/03 03:51:11;;;;;;;21.20;10.10;;;;;;;20.57;66.30;100559.66;5035729;28;20215;-68
2023/10/03 03:53:38;;;;;;;16.33;9.70;;;;;;;20.56;66.98;100574.28;5036199;28;20176;-67
2023/10/03 03:56:08;;;;;;;14.70;9.17;;;;;;;20.63;65.84;100584.03;5035579;28;20278;-67
2023/10/03 03:58:37;;;;;;;14.87;9.40;;;;;;;20.71;66.00;100577.53;5035559;28;20578;-67
2023/10/03 04:01:19;;;;;;;19.10;10.40;;;;;;;20.85;64.58;100573.63;5035613;28;20208;-67
2023/10/03 04:03:50;;;;;;;14.00;9.43;;;;;;;20.71;65.80;100575.63;5035757;28;20191;-67
2023/10/03 04:06:20;;;;;;;12.87;9.83;;;;;;;20.71;65.84;100586.47;5035437;28;20610;-67
2023/10/03 04:08:47;;;;;;;20.10;9.80;;;;;;;20.89;64.96;100572.13;5035297;28;20203;-67
2023/10/03 04:11:32;;;;;;;16.07;10.03;;;;;;;20.92;64.96;100591.53;5035541;28;20211;-67
2023/10/03 04:13:59;;;;;;;11.53;9.50;;;;;;;21.05;63.86;100577.00;5035095;28;20198;-67
2023/10/03 04:16:28;;;;;;;17.87;9.57;;;;;;;21.03;64.99;100589.16;5035530;28;20176;-67
2023/10/03 04:18:55;;;;;;;21.07;9.30;;;;;;;21.19;63.56;100585.88;5035168;28;20250;-67
2023/10/03 04:21:26;;;;;;;17.53;9.53;;;;;;;21.12;64.08;100580.53;5035164;28;20204;-68
2023/10/03 04:23:53;;;;;;;12.63;9.13;;;;;;;21.26;63.88;100583.97;5035113;28;20234;-67
2023/10/03 04:26:20;;;;;;;18.43;9.33;;;;;;;21.18;63.55;100581.50;5035247;28;20559;-67
2023/10/03 04:28:46;;;;;;;14.17;9.77;;;;;;;21.12;63.67;100583.25;5034890;28;20208;-67
2023/10/03 04:31:13;;;;;;;16.60;9.47;;;;;;;21.12;64.10;100566.94;5035440;28;20587;-67
2023/10/03 04:33:39;;;;;;;12.47;9.63;;;;;;;21.19;63.73;100581.28;5035068;28;20206;-67
2023/10/03 04:36:09;;;;;;;18.33;10.03;;;;;;;21.15;64.27;100577.34;5034827;28;20188;-67
2023/10/03 04:38:36;;;;;;;11.90;9.10;;;;;;;21.15;63.95;100585.50;5035102;28;20175;-67
2023/10/03 04:41:05;;;;;;;16.60;9.83;;;;;;;21.20;64.32;100588.41;5034684;28;20578;-67
2023/10/03 04:43:32;;;;;;;17.60;8.93;;;;;;;21.10;64.59;100584.47;5034685;28;20180;-68
2023/10/03 04:45:58;;;;;;;13.03;8.83;;;;;;;21.08;64.82;100589.31;5034616;28;20188;-67
2023/10/03 04:48:24;;;;;;;17.63;10.03;;;;;;;21.12;64.40;100587.81;5034473;28;20303;-67
2023/10/03 04:50:51;;;;;;;18.30;9.70;;;;;;;21.19;64.14;100592.16;5035079;28;20279;-67
2023/10/03 04:53:18;;;;;;;16.63;9.07;;;;;;;21.06;65.08;100602.28;5034453;28;20188;-67
2023/10/03 04:55:48;;;;;;;16.90;9.83;;;;;;;21.20;64.52;100590.28;5034452;28;20200;-67
2023/10/03 04:58:15;;;;;;;25.57;9.60;;;;;;;21.18;64.84;100592.38;5034626;28;20186;-67
2023/10/03 05:00:45;;;;;;;13.17;8.50;;;;;;;21.22;64.14;100580.84;5034683;28;20212;-68
2023/10/03 05:03:13;;;;;;;11.20;8.53;;;;;;;21.11;64.57;100572.56;5033692;28;20194;-67
2023/10/03 05:05:40;;;;;;;12.20;8.77;;;;;;;21.12;64.69;100576.94;5034262;28;20186;-67
2023/10/03 05:08:06;;;;;;;18.03;9.97;;;;;;;21.09;65.07;100588.28;5034666;28;20208;-67
2023/10/03 05:10:36;;;;;;;17.47;9.77;;;;;;;20.94;65.73;100596.75;5035065;28;20270;-68
2023/10/03 05:13:05;;;;;;;13.27;9.17;;;;;;;21.00;65.75;100598.59;5034374;28;20195;-68
2023/10/03 05:15:31;;;;;;;26.30;9.50;;;;;;;20.97;65.89;100585.44;5034190;28;20192;-68
2023/10/03 05:17:58;;;;;;;12.70;9.23;;;;;;;20.91;66.31;100589.06;5034589;28;20192;-68
2023/10/03 05:20:34;;;;;;;16.27;9.97;;;;;;;20.80;66.46;100584.31;5034441;28;20226;-68
2023/10/03 05:23:03;;;;;;;11.93;8.93;;;;;;;20.80;65.97;100585.16;5034268;28;20176;-68
2023/10/03 05:25:30;;;;;;;9.30;8.40;;;;;;;20.89;66.21;100589.28;5034158;28;20573;-67
2023/10/03 05:27:58;;;;;;;16.37;8.77;;;;;;;20.89;66.28;100583.84;5034315;28;20204;-67
2023/10/03 05:30:25;;;;;;;20.40;9.93;;;;;;;20.83;66.89;100595.63;5033773;28;20184;-68
2023/10/03 05:32:52;;;;;;;18.07;9.23;;;;;;;20.76;66.77;100594.81;5034382;28;20180;-67
2023/10/03 05:35:18;;;;;;;14.83;9.47;;;;;;;20.73;67.17;100599.84;5034017;28;20183;-67
2023/10/03 05:37:45;;;;;;;14.10;8.93;;;;;;;20.67;67.79;100595.28;5034271;28;20582;-67
2023/10/03 05:40:12;;;;;;;14.97;9.20;;;;;;;20.65;68.00;100587.38;5033639;28;20223;-67
2023/10/03 05:42:40;;;;;;;16.87;9.47;;;;;;;20.69;67.75;100609.50;5034720;28;20587;-70
2023/10/03 05:45:10;;;;;;;15.13;9.67;;;;;;;20.66;68.00;100616.22;5033596;28;20187;-70
2023/10/03 05:47:36;;;;;;;28.57;10.63;;;;;;;20.57;68.32;100619.41;5033445;28;20215;-70
2023/10/03 05:50:03;;;;;;;15.07;10.43;;;;;;;20.61;67.95;100634.22;5033427;28;20184;-71
2023/10/03 05:52:31;;;;;;;21.17;9.87;;;;;;;20.45;68.80;100616.56;5033392;28;20258;-70
2023/10/03 05:54:58;;;;;;;24.07;10.47;;;;;;;20.46;69.03;100642.66;5033758;28;20536;-71
2023/10/03 05:57:24;;;;;;;17.03;9.37;;;;;;;20.47;69.54;100647.06;5033698;28;20184;-70
2023/10/03 05:59:51;;;;;;;25.40;9.80;;;;;;;20.42;69.46;100623.25;5033364;28;20191;-70
2023/10/03 06:02:17;;;;;;;12.97;8.53;;;;;;;20.45;69.49;100627.44;5033250;28;20215;-70
2023/10/03 06:04:46;;;;;;;19.57;8.90;;;;;;;20.44;69.99;100651.06;5033315;28;20241;-70
2023/10/03 06:07:13;;;;;;;21.53;9.50;;;;;;;20.48;70.19;100635.97;5033689;28;20288;-70
2023/10/03 06:09:39;;;;;;;24.97;9.87;;;;;;;20.44;70.16;100642.06;5033078;28;20187;-70
2023/10/03 06:12:06;;;;;;;16.63;9.90;;;;;;;20.38;70.43;100656.50;5033461;28;20265;-70
2023/10/03 06:14:33;;;;;;;18.17;9.37;;;;;;;20.36;70.88;100666.75;5033204;28;20717;-70
2023/10/03 06:17:00;;;;;;;14.90;9.93;;;;;;;20.32;71.07;100657.38;5033672;28;20200;-71
2023/10/03 06:19:26;;;;;;;24.90;9.57;;;;;;;20.39;71.28;100672.59;5033386;28;20191;-71
2023/10/03 06:21:52;;;;;;;13.23;8.47;;;;;;;20.36;71.09;100674.91;5033299;28;20265;-71
2023/10/03 06:24:19;;;;;;;20.47;9.53;;;;;;;20.34;71.20;100669.69;5032159;28;20261;-71
2023/10/03 06:26:47;;;;;;;11.87;8.50;;;;;;;20.38;71.24;100657.34;5033858;28;20188;-71
2023/10/03 06:29:15;;;;;;;13.10;8.37;;;;;;;20.39;71.44;100675.31;5033209;28;20211;-71
2023/10/03 06:31:41;;;;;;;15.30;9.40;;;;;;;20.36;71.34;100691.19;5033080;28;20219;-71
2023/10/03 06:34:08;;;;;;;11.70;9.10;;;;;;;20.29;71.81;100668.63;5032997;28;20235;-71
2023/10/03 06:36:34;;;;;;;11.73;8.37;;;;;;;20.29;72.05;100663.19;5033254;28;20188;-70
2023/10/03 06:39:04;;;;;;;15.67;8.17;;;;;;;20.23;72.43;100692.06;5033220;28;20188;-70
2023/10/03 06:41:31;;;;;;;14.90;8.00;;;;;;;20.29;72.20;100690.34;5033205;28;20226;-70
2023/10/03 06:43:58;;;;;;;10.13;7.87;;;;;;;20.21;72.24;100685.16;5032914;28;20176;-71
2023/10/03 06:46:24;;;;;;;15.03;7.97;;;;;;;20.27;72.33;100706.88;5033190;28;20531;-70
2023/10/03 06:48:52;;;;;;;14.43;7.60;;;;;;;20.22;72.34;100695.81;5033069;28;20565;-70
2023/10/03 06:51:18;;;;;;;9.83;7.80;;;;;;;20.21;72.54;100683.28;5033223;28;20204;-71
2023/10/03 06:53:48;;;;;;;10.90;7.63;;;;;;;20.18;72.78;100696.47;5032848;28;20192;-70
2023/10/03 06:56:19;;;;;;;7.83;7.10;;;;;;;20.15;72.65;100708.59;5033054;28;20196;-70
2023/10/03 06:58:49;;;;;;;14.23;8.20;;;;;;;20.11;72.76;100706.53;5033087;28;20229;-70
2023/10/03 07:01:15;;;;;;;10.00;7.70;;;;;;;20.03;73.78;100705.69;5032647;28;20757;-71
2023/10/03 07:03:42;;;;;;;11.17;7.27;;;;;;;20.06;73.19;100732.44;5033293;28;20254;-71
2023/10/03 07:06:09;;;;;;;7.93;7.17;;;;;;;20.00;73.14;100746.84;5032709;28;20188;-71
2023/10/03 07:08:35;;;;;;;8.80;6.90;;;;;;;19.96;73.55;100751.03;5032952;28;20218;-71
2023/10/03 07:11:02;;;;;;;7.83;7.00;;;;;;;19.97;73.68;100766.25;5032609;28;20204;-71
2023/10/03 07:13:29;;;;;;;7.80;6.40;;;;;;;19.94;72.83;100757.72;5032610;28;20192;-71
2023/10/03 07:15:58;;;;;;;9.03;6.30;;;;;;;19.89;72.09;100757.50;5033174;28;20188;-71
2023/10/03 07:18:25;;;;;;;9.70;5.67;;;;;;;19.87;71.66;100754.16;5032591;28;20195;-72
2023/10/03 07:20:51;;;;;;;9.17;5.50;;;;;;;19.87;72.24;100765.00;5032473;28;20218;-71
2023/10/03 07:23:19;;;;;;;5.63;5.10;;;;;;;19.77;72.87;100767.34;5032669;28;20192;-72
2023/10/03 07:25:46;;;;;;;6.10;5.70;;;;;;;19.74;71.49;100759.59;5035011;28;20682;-71
2023/10/03 07:28:14;;;;;;;6.53;4.87;;;;;;;19.72;71.51;100743.56;5036270;28;20208;-71
2023/10/03 07:30:41;;;;;;;20.27;4.73;;;;;;;19.65;72.09;100747.31;5036517;28;20204;-71
2023/10/03 07:33:08;;;;;;;4.87;4.57;;;;;;;19.66;72.01;100760.66;5036703;28;20208;-71
2023/10/03 07:35:37;;;;;;;5.50;5.20;;;;;;;19.67;71.98;100747.94;5036091;28;20198;-71
2023/10/03 07:38:03;;;;;;;10.47;4.87;;;;;;;19.64;71.67;100742.94;5036299;28;20172;-71
2023/10/03 07:40:30;;;;;;;7.40;5.37;;;;;;;19.62;71.61;100737.72;5035948;28;20184;-71
2023/10/03 07:42:56;;;;;;;6.27;5.50;;;;;;;19.58;72.09;100777.16;5036259;28;20187;-71
2023/10/03 07:45:23;;;;;;;5.40;5.10;;;;;;;19.60;72.63;100778.59;5036129;28;20528;-71
2023/10/03 07:47:50;;;;;;;7.23;5.63;;;;;;;19.59;72.34;100773.41;5036409;28;20200;-70
2023/10/03 07:50:18;;;;;;;6.23;5.63;;;;;;;19.68;72.27;100752.31;5035977;28;20192;-70
2023/10/03 07:52:48;;;;;;;5.20;4.83;;;;;;;19.62;71.99;100745.84;5035700;28;20187;-71
2023/10/03 07:55:19;;;;;;;5.83;5.27;;;;;;;19.61;71.75;100738.75;5035854;28;20203;-71
2023/10/03 07:57:46;;;;;;;5.53;5.03;;;;;;;19.59;72.39;100787.78;5036007;28;20173;-71
2023/10/03 08:00:17;;;;;;;10.83;5.20;;;;;;;19.64;72.40;100797.19;5035909;28;20168;-71
2023/10/03 08:02:44;;;;;;;9.57;5.60;;;;;;;19.59;73.00;100786.97;5036485;28;20200;-71
2023/10/03 08:05:11;;;;;;;5.50;5.13;;;;;;;19.57;72.66;100794.47;5036005;28;20191;-71
2023/10/03 08:07:38;;;;;;;5.27;4.87;;;;;;;19.57;72.25;100792.59;5035350;28;20216;-71
2023/10/03 08:10:07;;;;;;;5.60;5.20;;;;;;;19.61;71.62;100791.13;5035523;28;20192;-71
2023/10/03 08:12:38;;;;;;;5.53;5.10;;;;;;;19.56;72.40;100803.66;5035196;28;20215;-71
2023/10/03 08:15:16;;;;;;;7.13;5.13;;;;;;;19.54;71.89;100801.16;5035348;28;20192;-71
2023/10/03 08:17:45;;;;;;;21.90;4.80;;;;;;;19.58;72.52;100790.72;5035444;28;20180;-71
2023/10/03 08:20:14;;;;;;;8.10;5.33;;;;;;;19.58;72.07;100790.72;5035094;28;20226;-71
2023/10/03 08:22:50;;;;;;;5.43;4.97;;;;;;;19.62;72.14;100808.22;5035199;28;20218;-71
2023/10/03 08:25:27;;;;;;;8.73;4.90;;;;;;;19.58;72.88;100825.97;5035350;28;20180;-71
2023/10/03 08:27:55;;;;;;;5.00;4.60;;;;;;;19.58;72.71;100815.13;5035214;28;20532;-71
2023/10/03 08:30:30;;;;;;;5.20;4.87;;;;;;;19.62;72.82;100819.09;5035182;28;20177;-70
2023/10/03 08:33:01;;;;;;;5.57;5.07;;;;;;;19.55;72.54;100831.81;5035162;28;20550;-71
2023/10/03 08:35:40;;;;;;;5.30;5.00;;;;;;;19.65;72.44;100828.69;5035124;28;20195;-72
2023/10/03 08:38:09;;;;;;;5.83;5.43;;;;;;;19.58;73.04;100839.53;5035120;28;20176;-72
2023/10/03 08:40:44;;;;;;;6.60;6.13;;;;;;;19.57;73.83;100838.69;5034751;28;20203;-72
2023/10/03 08:43:12;;;;;;;14.93;6.30;;;;;;;19.38;74.47;100842.19;5035301;28;20190;-71
2023/10/03 08:45:41;;;;;;;6.13;5.83;;;;;;;19.30;75.43;100828.00;5034959;28;20583;-72
2023/10/03 08:48:08;;;;;;;5.77;5.27;;;;;;;19.25;75.80;100830.47;5034796;28;20211;-72
2023/10/03 08:50:40;;;;;;;5.90;5.43;;;;;;;19.16;75.90;100836.09;5034756;28;20219;-71
2023/10/03 08:53:13;;;;;;;9.30;5.40;;;;;;;19.16;76.93;100857.78;5035105;28;20184;-71
2023/10/03 08:55:43;;;;;;;6.00;5.47;;;;;;;19.10;76.30;100874.00;5034435;28;20183;-71
2023/10/03 08:58:13;;;;;;;6.37;5.77;;;;;;;18.98;78.09;100875.63;5035263;28;20234;-71
2023/10/03 09:00:43;;;;;;;6.53;5.13;;;;;;;18.88;78.62;100865.19;5034432;28;20261;-70
2023/10/03 09:03:14;;;;;;;8.83;5.63;;;;;;;18.92;78.21;100869.19;5034584;28;20579;-71
2023/10/03 09:05:42;;;;;;;7.67;6.40;;;;;;;18.88;78.06;100869.78;5034498;28;20184;-71
2023/10/03 09:08:14;;;;;;;6.53;5.73;;;;;;;18.84;78.57;100863.09;5034082;28;20269;-72
2023/10/03 09:10:51;;;;;;;6.23;5.93;;;;;;;18.83;79.13;100856.00;5034514;28;20212;-71
2023/10/03 09:13:23;;;;;;;6.17;5.77;;;;;;;18.83;78.96;100853.28;5034472;28;20195;-72
2023/10/03 09:16:00;;;;;;;7.27;6.50;;;;;;;18.89;78.59;100858.72;5034283;28;20559;-71
2023/10/03 09:18:40;;;;;;;6.23;5.73;;;;;;;18.88;78.83;100865.19;5034341;28;20210;-71
2023/10/03 09:21:23;;;;;;;6.63;6.00;;;;;;;18.98;78.74;100860.22;5034331;28;20715;-71
2023/10/03 09:24:09;;;;;;;6.40;5.93;;;;;;;18.89;78.36;100864.13;5034223;28;20180;-71
2023/10/03 09:26:45;;;;;;;7.33;6.60;;;;;;;18.91;78.70;100875.63;5034511;28;20234;-71
2023/10/03 09:29:29;;;;;;;8.20;6.70;;;;;;;18.86;79.47;100866.41;5034108;28;20195;-71
2023/10/03 09:31:59;;;;;;;9.83;6.20;;;;;;;18.90;79.35;100862.28;5034038;28;20269;-71
2023/10/03 09:34:32;;;;;;;6.47;6.10;;;;;;;18.89;79.42;100869.56;5034043;28;20184;-71
2023/10/03 09:37:02;;;;;;;6.10;5.57;;;;;;;18.86;79.84;100869.13;5033586;28;20180;-71
2023/10/03 09:39:30;;;;;;;6.00;5.77;;;;;;;18.77;79.96;100867.63;5034211;28;20616;-71
2023/10/03 09:41:57;;;;;;;9.43;5.70;;;;;;;18.70;79.99;100873.03;5033427;28;20695;-71
2023/10/03 09:44:29;;;;;;;15.03;6.23;;;;;;;18.69;80.45;100865.94;5033856;28;20255;-71
2023/10/03 09:47:00;;;;;;;6.63;6.30;;;;;;;18.75;80.25;100892.22;5033449;28;20246;-71
2023/10/03 09:49:38;;;;;;;6.20;5.80;;;;;;;18.77;79.74;100892.00;5033323;28;20307;-71
2023/10/03 09:52:09;;;;;;;13.43;7.17;;;;;;;18.77;80.31;100890.13;5033398;28;20207;-71
2023/10/03 09:54:36;;;;;;;6.43;5.80;;;;;;;18.81;80.10;100886.00;5033361;28;20180;-71
2023/10/03 09:57:15;;;;;;;8.83;6.53;;;;;;;18.82;80.00;100887.66;5033620;28;20595;-71
2023/10/03 09:59:46;;;;;;;7.37;6.80;;;;;;;18.85;79.92;100908.94;5033306;28;20705;-71
2023/10/03 10:02:15;;;;;;;9.73;6.33;;;;;;;18.86;79.71;100898.94;5033319;28;20213;-71
2023/10/03 10:04:50;;;;;;;10.13;6.03;;;;;;;18.84;79.74;100885.56;5033192;28;20192;-71
2023/10/03 10:07:43;;;;;;;15.47;7.20;;;;;;;18.70;81.42;100908.25;5033184;28;20242;-71
2023/10/03 10:10:14;;;;;;;7.93;6.70;;;;;;;18.54;82.78;100908.56;5033445;28;20203;-72
2023/10/03 10:13:22;;;;;;;7.27;6.60;;;;;;;18.31;83.94;100910.66;5033037;28;20282;-71
2023/10/03 10:16:00;;;;;;;7.23;6.87;;;;;;;18.23;84.59;100903.53;5031124;28;20203;-72
2023/10/03 10:18:44;;;;;;;7.20;6.70;;;;;;;18.07;85.19;100925.47;5032973;28;20241;-72
2023/10/03 10:21:25;;;;;;;13.03;7.57;;;;;;;17.88;84.89;100909.88;5033041;28;20203;-72
2023/10/03 10:24:16;;;;;;;8.60;7.90;;;;;;;17.90;86.03;100903.25;5033060;28;20168;-71
2023/10/03 10:26:48;;;;;;;8.10;7.60;;;;;;;17.85;86.39;100899.47;5033353;28;20258;-71
2023/10/03 10:29:20;;;;;;;11.93;8.47;;;;;;;17.95;86.34;100906.19;5033507;28;20246;-71
2023/10/03 10:31:57;;;;;;;8.57;7.97;;;;;;;17.97;87.03;100920.38;5033354;28;20226;-71
2023/10/03 10:34:35;;;;;;;8.43;7.83;;;;;;;18.00;87.33;100922.69;5033346;28;20176;-71
2023/10/03 10:37:09;;;;;;;9.23;8.33;;;;;;;17.97;86.50;100924.94;5033410;28;20603;-72
2023/10/03 10:43:00;;;;;;;8.77;8.10;;;;;;;17.99;87.26;100931.81;5032852;28;20718;-72
2023/10/03 10:45:27;;;;;;;10.43;8.23;;;;;;;17.97;86.60;100927.66;5033225;28;20180;-72
2023/10/03 10:47:55;;;;;;;11.20;9.47;;;;;;;17.96;87.18;100939.50;5033143;28;20594;-71
2023/10/03 10:50:25;;;;;;;12.50;9.10;;;;;;;18.04;87.76;100942.91;5032931;28;20294;-70
2023/10/03 10:52:56;;;;;;;9.30;8.60;;;;;;;17.98;87.02;100927.47;5033004;28;20191;-71
2023/10/03 10:55:25;;;;;;;9.97;8.70;;;;;;;18.00;86.98;100944.34;5032810;28;20740;-71
2023/10/03 10:58:09;;;;;;;9.60;8.70;;;;;;;17.97;87.03;100960.13;5032818;28;20660;-72
2023/10/03 11:00:36;;;;;;;10.77;9.77;;;;;;;18.01;86.53;100966.81;5034680;28;20660;-71
2023/10/03 11:03:04;;;;;;;5.60;5.40;;;;;;;17.97;83.13;100977.19;5036603;28;20227;-72
2023/10/03 11:05:44;;;;;;;3.40;3.20;;;;;;;17.88;80.55;100988.31;5036777;28;20180;-73
2023/10/03 11:08:10;;;;;;;2.53;2.33;;;;;;;17.83;79.96;100988.91;5036778;28;20576;-72
2023/10/03 11:10:53;;;;;;;1.53;1.53;;;;;;;17.73;78.25;101001.91;5036323;28;20196;-72
2023/10/03 11:13:24;;;;;;;2.00;1.00;;;;;;;17.65;79.34;101008.25;5036831;28;20184;-72
2023/10/03 11:15:54;;;;;;;0.90;0.90;;;;;;;17.55;77.78;101009.56;5036221;28;20612;-72
2023/10/03 11:18:29;;;;;;;1.00;1.00;;;;;;;17.52;78.31;101007.25;5037100;28;20616;-72
2023/10/03 11:21:02;;;;;;;2.73;0.90;;;;;;;17.51;79.79;101016.38;5036527;28;20211;-72
2023/10/03 11:23:29;;;;;;;6.33;0.97;;;;;;;17.47;80.16;101015.94;5036711;28;20601;-72
2023/10/03 11:25:57;;;;;;;0.90;0.90;;;;;;;17.51;79.56;101009.13;5036486;28;20184;-72
2023/10/03 11:28:28;;;;;;;0.90;0.90;;;;;;;17.46;78.65;101014.25;5036053;28;20188;-72
2023/10/03 11:31:05;;;;;;;2.20;0.90;;;;;;;17.44;78.63;101004.66;5036085;28;20687;-71
2023/10/03 11:33:47;;;;;;;1.20;1.20;;;;;;;17.39;78.46;100998.97;5036309;28;20210;-72
2023/10/03 11:36:14;;;;;;;1.80;1.10;;;;;;;17.39;78.46;100998.97;5036288;28;20188;-71
2023/10/03 11:38:47;;;;;;;0.80;0.80;;;;;;;17.43;78.32;101001.13;5035971;28;20685;-72
2023/10/03 11:41:31;;;;;;;1.07;1.07;;;;;;;17.42;78.69;100996.75;5036195;28;20223;-72